Time;durP1;ratioP1;P1;durP2;ratioP2;P2;SDS_P1;SDS_P2;PMS_P1;PMS_P2;Temp;Humidity;BMP_temperature;BMP_pressure;BME280_temperature;BME280_humidity;BME280_pressure;Samples;Min_cycle;Max_cycle;Signal;HPM_P1;HPM_P2
2022/03/21 00:00:27;;;;;;;3.70;3.35;;;19.60;62.40;;;;;;5013242;28;20034;-69
2022/03/21 00:02:53;;;;;;;3.72;3.33;;;19.50;62.50;;;;;;5013181;28;20014;-69
2022/03/21 00:05:19;;;;;;;5.53;3.95;;;19.60;62.50;;;;;;5014295;28;20041;-69
2022/03/21 00:07:44;;;;;;;6.05;4.10;;;19.60;62.60;;;;;;5013982;28;20030;-69
2022/03/21 00:10:10;;;;;;;3.70;3.40;;;19.50;62.50;;;;;;5012925;28;20271;-69
2022/03/21 00:12:39;;;;;;;4.15;3.78;;;19.50;62.50;;;;;;5013998;28;20222;-69
2022/03/21 00:15:06;;;;;;;4.18;3.53;;;19.50;62.60;;;;;;5013739;28;20024;-69
2022/03/21 00:17:34;;;;;;;4.35;3.55;;;19.50;62.60;;;;;;5012722;28;20021;-69
2022/03/21 00:19:59;;;;;;;3.70;3.28;;;19.50;62.70;;;;;;5013903;28;20045;-69
2022/03/21 00:22:25;;;;;;;3.72;3.17;;;19.50;62.60;;;;;;5013728;28;20046;-69
2022/03/21 00:24:50;;;;;;;4.28;3.55;;;19.50;62.70;;;;;;5013675;28;20084;-69
2022/03/21 00:27:16;;;;;;;4.20;3.83;;;19.50;62.70;;;;;;5013615;28;20022;-69
2022/03/21 00:29:42;;;;;;;4.10;3.50;;;19.50;62.70;;;;;;5013928;28;20111;-69
2022/03/21 00:32:07;;;;;;;3.97;3.65;;;19.50;62.70;;;;;;5013462;28;20564;-69
2022/03/21 00:34:33;;;;;;;4.18;3.78;;;19.50;62.70;;;;;;5021970;28;20032;-69
2022/03/21 00:36:59;;;;;;;5.50;3.80;;;19.50;62.90;;;;;;5032953;28;20411;-69
2022/03/21 00:39:24;;;;;;;4.18;3.78;;;19.50;62.80;;;;;;5033509;28;20025;-69
2022/03/21 00:41:51;;;;;;;4.10;3.70;;;19.50;62.90;;;;;;5032894;28;20044;-68
2022/03/21 00:44:16;;;;;;;4.90;3.33;;;19.40;62.80;;;;;;5031904;28;20480;-69
2022/03/21 00:46:42;;;;;;;5.78;3.92;;;19.50;62.90;;;;;;5032077;28;20025;-69
2022/03/21 00:49:11;;;;;;;3.90;3.50;;;19.40;62.90;;;;;;5028687;28;20424;-69
2022/03/21 00:51:38;;;;;;;3.95;3.38;;;19.40;63.00;;;;;;5011068;28;20424;-69
2022/03/21 00:54:03;;;;;;;4.30;3.50;;;19.50;62.90;;;;;;4995607;28;20392;-69
2022/03/21 00:56:29;;;;;;;3.50;3.20;;;19.40;62.90;;;;;;5013069;28;20036;-69
2022/03/21 00:58:55;;;;;;;4.75;3.33;;;19.50;63.00;;;;;;5013085;28;20498;-69
2022/03/21 01:01:20;;;;;;;3.47;3.17;;;19.50;63.00;;;;;;5011990;28;20369;-69
2022/03/21 01:03:46;;;;;;;4.47;3.80;;;19.40;63.00;;;;;;5012276;28;20026;-69
2022/03/21 01:06:11;;;;;;;4.05;3.65;;;19.40;63.00;;;;;;5012931;28;20057;-69
2022/03/21 01:08:38;;;;;;;3.65;3.35;;;19.40;63.00;;;;;;5011944;28;20040;-69
2022/03/21 01:11:03;;;;;;;3.97;3.63;;;19.40;63.10;;;;;;5012708;28;20026;-69
2022/03/21 01:13:29;;;;;;;4.60;3.60;;;19.40;63.10;;;;;;5011779;28;20498;-69
2022/03/21 01:15:55;;;;;;;4.03;3.03;;;19.40;63.10;;;;;;5012907;28;20061;-69
2022/03/21 01:18:22;;;;;;;5.43;3.35;;;19.40;63.20;;;;;;5012750;28;20021;-69
2022/03/21 01:20:48;;;;;;;3.80;3.50;;;19.40;63.10;;;;;;5012832;28;20025;-69
2022/03/21 01:23:14;;;;;;;4.53;3.00;;;19.40;63.20;;;;;;5011661;28;20022;-69
2022/03/21 01:25:39;;;;;;;3.40;3.10;;;19.40;63.20;;;;;;5011483;28;20030;-69
2022/03/21 01:28:05;;;;;;;4.22;3.30;;;19.40;63.20;;;;;;5012526;28;20062;-69
2022/03/21 01:30:31;;;;;;;4.00;3.03;;;19.40;63.20;;;;;;5012878;28;20025;-69
2022/03/21 01:32:56;;;;;;;4.65;2.83;;;19.40;63.30;;;;;;5012573;28;20083;-69
2022/03/21 01:35:22;;;;;;;3.47;3.17;;;19.40;63.30;;;;;;5027489;28;20029;-69
2022/03/21 01:37:48;;;;;;;4.32;3.50;;;19.40;63.40;;;;;;5032302;28;20029;-69
2022/03/21 01:40:14;;;;;;;3.50;3.20;;;19.40;63.30;;;;;;5030808;28;20021;-69
2022/03/21 01:42:43;;;;;;;3.45;3.15;;;19.40;63.40;;;;;;5032261;28;20041;-68
2022/03/21 01:45:09;;;;;;;3.50;3.20;;;19.40;63.40;;;;;;5032087;28;20025;-69
2022/03/21 01:47:35;;;;;;;3.95;3.25;;;19.30;63.30;;;;;;5031062;28;20108;-69
2022/03/21 01:50:02;;;;;;;3.75;3.20;;;19.40;63.40;;;;;;5020670;28;20097;-69
2022/03/21 01:52:28;;;;;;;4.13;3.38;;;19.40;63.40;;;;;;5012487;28;20050;-69
2022/03/21 01:57:38;;;;;;;3.40;3.10;;;19.30;63.50;;;;;;5012440;28;20033;-69
2022/03/21 02:00:05;;;;;;;4.95;3.35;;;19.30;63.40;;;;;;5011148;28;20024;-69
2022/03/21 02:02:31;;;;;;;4.38;3.17;;;19.30;63.50;;;;;;5011399;28;20053;-69
2022/03/21 02:04:56;;;;;;;4.50;3.40;;;19.30;63.50;;;;;;5014960;28;20050;-69
2022/03/21 02:07:22;;;;;;;4.00;3.20;;;19.30;63.50;;;;;;5016260;28;20435;-69
2022/03/21 02:09:47;;;;;;;3.33;3.08;;;19.30;63.40;;;;;;5015199;28;20018;-69
2022/03/21 02:12:14;;;;;;;3.00;2.70;;;19.30;63.50;;;;;;5014948;28;20029;-69
2022/03/21 02:14:40;;;;;;;3.63;3.33;;;19.30;63.50;;;;;;5016595;28;20022;-69
2022/03/21 02:17:06;;;;;;;3.88;3.15;;;19.30;63.50;;;;;;5015980;28;20198;-69
2022/03/21 02:19:32;;;;;;;4.25;3.10;;;19.30;63.50;;;;;;5016191;28;20485;-69
2022/03/21 02:21:57;;;;;;;3.38;3.13;;;19.30;63.50;;;;;;5014877;28;20077;-69
2022/03/21 02:24:51;;;;;;;4.18;3.35;;;19.30;63.50;;;;;;5015781;28;20026;-69
2022/03/21 02:27:17;;;;;;;3.30;2.92;;;19.40;63.50;;;;;;5015862;28;20053;-69
2022/03/21 02:29:43;;;;;;;3.05;2.75;;;19.30;63.60;;;;;;5014955;28;20026;-68
2022/03/21 02:32:09;;;;;;;3.97;3.10;;;19.30;63.50;;;;;;5014602;28;20018;-69
2022/03/21 02:34:38;;;;;;;4.18;3.30;;;19.30;63.50;;;;;;5023174;28;20032;-69
2022/03/21 02:37:04;;;;;;;3.67;3.22;;;19.30;63.50;;;;;;5034187;28;20034;-68
2022/03/21 02:39:30;;;;;;;3.22;2.92;;;19.30;63.60;;;;;;5034372;28;20037;-69
2022/03/21 02:41:56;;;;;;;3.42;2.78;;;19.30;63.60;;;;;;5035369;28;20073;-69
2022/03/21 02:44:22;;;;;;;3.35;3.05;;;19.30;63.60;;;;;;5035377;28;20069;-69
2022/03/21 02:46:47;;;;;;;3.15;2.92;;;19.30;63.60;;;;;;5034409;28;20084;-69
2022/03/21 02:49:16;;;;;;;3.35;3.05;;;19.30;63.60;;;;;;5030353;28;20434;-69
2022/03/21 02:51:42;;;;;;;3.83;3.35;;;19.30;63.60;;;;;;5014327;28;20030;-69
2022/03/21 02:54:08;;;;;;;3.38;3.08;;;19.30;63.60;;;;;;5015258;28;20022;-69
2022/03/21 02:56:33;;;;;;;4.03;2.95;;;19.30;63.60;;;;;;5015463;28;20088;-69
2022/03/21 02:58:59;;;;;;;3.60;3.03;;;19.30;63.60;;;;;;5014199;28;20026;-69
2022/03/21 03:01:25;;;;;;;3.20;3.00;;;19.30;64.60;;;;;;5014084;28;20057;-69
2022/03/21 03:03:51;;;;;;;3.20;2.90;;;19.30;64.70;;;;;;5015646;28;20022;-69
2022/03/21 03:06:17;;;;;;;3.33;2.90;;;19.20;63.60;;;;;;5014991;28;20080;-69
2022/03/21 03:08:43;;;;;;;3.03;2.83;;;19.30;63.70;;;;;;5015215;28;20472;-69
2022/03/21 03:11:09;;;;;;;2.92;2.63;;;19.20;63.60;;;;;;5013972;28;20049;-69
2022/03/21 03:13:35;;;;;;;3.25;2.97;;;19.30;63.70;;;;;;5015261;28;20025;-69
2022/03/21 03:16:01;;;;;;;3.17;2.88;;;19.20;63.70;;;;;;5014077;28;20492;-69
2022/03/21 03:18:26;;;;;;;3.17;2.88;;;19.20;63.60;;;;;;5014991;28;20022;-69
2022/03/21 03:20:57;;;;;;;3.25;2.80;;;19.20;63.70;;;;;;5014824;28;20656;-69
2022/03/21 03:23:30;;;;;;;4.15;2.72;;;19.20;63.70;;;;;;5013699;28;20018;-69
2022/03/21 03:25:58;;;;;;;3.20;2.90;;;19.30;63.70;;;;;;5015088;28;20109;-69
2022/03/21 03:28:24;;;;;;;3.05;2.83;;;19.20;63.70;;;;;;5013613;28;20025;-69
2022/03/21 03:30:50;;;;;;;3.38;3.08;;;19.20;63.70;;;;;;5013839;28;20037;-69
2022/03/21 03:33:15;;;;;;;4.35;3.30;;;19.20;63.70;;;;;;5014617;28;20036;-69
2022/03/21 03:35:41;;;;;;;3.50;3.20;;;19.20;63.70;;;;;;5030748;28;20080;-69
2022/03/21 03:38:07;;;;;;;3.20;2.90;;;19.20;63.80;;;;;;5033139;28;20021;-69
2022/03/21 03:40:32;;;;;;;3.08;2.88;;;19.20;63.80;;;;;;5033423;28;20553;-69
2022/03/21 03:42:58;;;;;;;3.03;2.83;;;19.20;63.80;;;;;;5034211;28;20034;-69
2022/03/21 03:45:25;;;;;;;2.95;2.72;;;19.20;63.80;;;;;;5034369;28;20036;-69
2022/03/21 03:47:51;;;;;;;3.42;3.15;;;19.20;63.80;;;;;;5034536;28;20021;-68
2022/03/21 03:50:17;;;;;;;2.90;2.70;;;19.20;63.80;;;;;;5020144;28;20084;-69
2022/03/21 03:52:45;;;;;;;3.70;2.95;;;19.20;63.80;;;;;;5014427;28;20025;-68
2022/03/21 03:55:12;;;;;;;3.92;2.90;;;19.20;63.80;;;;;;5014388;28;20030;-69
2022/03/21 03:57:38;;;;;;;3.13;2.83;;;19.20;63.80;;;;;;5014299;28;20101;-69
2022/03/21 04:00:05;;;;;;;3.25;3.00;;;19.20;63.90;;;;;;5014295;28;20102;-69
2022/03/21 04:03:44;;;;;;;2.80;2.60;;;19.20;63.80;;;;;;5014251;28;20042;-69
2022/03/21 04:05:16;;;;;;;3.17;2.88;;;19.20;63.90;;;;;;5013837;28;20080;-69
2022/03/21 04:07:41;;;;;;;3.72;3.33;;;19.20;64.00;;;;;;5014173;28;20440;-69
2022/03/21 04:10:07;;;;;;;3.63;2.90;;;19.20;64.00;;;;;;5014093;28;20026;-69
2022/03/21 04:12:35;;;;;;;3.30;3.00;;;19.20;64.00;;;;;;5014204;28;20496;-69
2022/03/21 04:15:00;;;;;;;3.60;3.22;;;19.20;64.00;;;;;;5012635;28;20037;-69
2022/03/21 04:17:26;;;;;;;3.42;2.67;;;19.20;63.90;;;;;;5012780;28;20072;-69
2022/03/21 04:19:52;;;;;;;3.42;3.00;;;19.20;64.00;;;;;;5013821;28;20033;-69
2022/03/21 04:22:18;;;;;;;3.15;2.92;;;19.20;64.00;;;;;;5013788;28;20025;-69
2022/03/21 04:24:43;;;;;;;3.20;2.90;;;19.20;64.00;;;;;;5013931;28;20022;-69
2022/03/21 04:27:09;;;;;;;3.05;2.85;;;19.10;63.90;;;;;;5013492;28;20029;-69
2022/03/21 04:29:34;;;;;;;3.25;2.95;;;19.10;64.00;;;;;;5013734;28;20034;-69
2022/03/21 04:32:01;;;;;;;3.30;3.00;;;19.10;63.90;;;;;;5013970;28;20377;-69
2022/03/21 04:34:27;;;;;;;2.97;2.67;;;19.10;63.90;;;;;;5019597;28;20033;-69
2022/03/21 04:36:53;;;;;;;3.78;2.92;;;19.10;64.00;;;;;;5032259;28;20025;-69
2022/03/21 04:39:18;;;;;;;3.00;2.70;;;19.10;64.00;;;;;;5033144;28;20022;-69
2022/03/21 04:41:44;;;;;;;2.85;2.65;;;19.10;64.00;;;;;;5033236;28;20470;-69
2022/03/21 04:44:11;;;;;;;2.95;2.75;;;19.10;64.00;;;;;;5032003;28;20048;-69
2022/03/21 04:46:36;;;;;;;3.10;2.88;;;19.10;64.00;;;;;;5033413;28;20022;-69
2022/03/21 04:49:02;;;;;;;5.53;2.78;;;19.10;64.00;;;;;;5029429;28;20037;-69
2022/03/21 04:51:28;;;;;;;2.90;2.70;;;19.10;64.00;;;;;;5011983;28;20026;-69
2022/03/21 04:53:53;;;;;;;3.13;2.83;;;19.10;64.10;;;;;;5013401;28;20492;-69
2022/03/21 04:56:19;;;;;;;2.72;2.53;;;19.10;64.00;;;;;;5012002;28;20026;-69
2022/03/21 04:58:44;;;;;;;3.15;2.88;;;19.10;64.00;;;;;;5013462;28;20034;-69
2022/03/21 05:01:10;;;;;;;3.55;2.92;;;19.10;64.00;;;;;;5013259;28;20028;-69
2022/03/21 05:03:36;;;;;;;2.95;2.67;;;19.10;64.00;;;;;;5013060;28;20025;-69
2022/03/21 05:06:02;;;;;;;2.60;2.40;;;19.00;64.00;;;;;;5012083;28;20033;-69
2022/03/21 05:08:28;;;;;;;3.15;2.90;;;19.10;64.10;;;;;;5011973;28;20066;-69
2022/03/21 05:10:53;;;;;;;3.08;2.78;;;19.00;64.00;;;;;;5013169;28;20054;-69
2022/03/21 05:13:19;;;;;;;3.03;2.72;;;19.00;64.10;;;;;;5012958;28;20038;-69
2022/03/21 05:15:45;;;;;;;2.92;2.63;;;19.00;64.10;;;;;;5012896;28;20029;-69
2022/03/21 05:18:11;;;;;;;2.83;2.63;;;19.00;64.00;;;;;;5011564;28;20026;-69
2022/03/21 05:20:37;;;;;;;2.95;2.70;;;19.00;64.10;;;;;;5012759;28;20026;-69
2022/03/21 05:31:15;;;;;;;2.83;2.63;;;19.00;64.10;;;;;;5012486;28;20080;-69
2022/03/21 05:36:27;;;;;;;2.65;2.45;;;19.00;64.20;;;;;;5032148;28;20083;-69
2022/03/21 05:38:56;;;;;;;2.83;2.60;;;19.00;64.20;;;;;;5030757;28;20132;-69
2022/03/21 05:41:22;;;;;;;2.80;2.60;;;19.00;64.20;;;;;;5032202;28;20033;-69
2022/03/21 05:43:49;;;;;;;2.83;2.63;;;19.00;64.20;;;;;;5030986;28;20037;-69
2022/03/21 05:46:15;;;;;;;2.75;2.55;;;19.00;64.20;;;;;;5030908;28;20102;-69
2022/03/21 05:51:32;;;;;;;3.42;2.85;;;19.00;64.20;;;;;;5012391;28;20036;-69
2022/03/21 05:54:03;;;;;;;3.10;2.90;;;19.00;64.20;;;;;;5011381;28;20030;-69
2022/03/21 05:56:29;;;;;;;2.95;2.60;;;19.00;64.30;;;;;;5012302;28;20022;-69
2022/03/21 05:58:55;;;;;;;3.00;2.70;;;19.00;64.30;;;;;;5011359;28;20030;-69
2022/03/21 06:01:24;;;;;;;3.35;2.97;;;19.00;64.20;;;;;;5010919;28;20026;-69
2022/03/21 06:03:52;;;;;;;2.95;2.70;;;19.00;64.30;;;;;;5010933;28;20030;-69
2022/03/21 06:06:18;;;;;;;2.83;2.63;;;19.00;64.20;;;;;;5011190;28;20033;-69
2022/03/21 06:08:44;;;;;;;3.33;2.88;;;19.00;64.30;;;;;;5012177;28;20137;-69
2022/03/21 06:11:12;;;;;;;2.95;2.75;;;19.00;64.30;;;;;;5012350;28;20113;-69
2022/03/21 06:13:42;;;;;;;3.33;2.30;;;19.00;64.30;;;;;;5012150;28;20026;-69
2022/03/21 06:16:08;;;;;;;4.28;2.95;;;19.00;64.30;;;;;;5010653;28;20029;-69
2022/03/21 06:18:34;;;;;;;2.70;2.50;;;18.90;64.30;;;;;;5011255;28;20034;-69
2022/03/21 06:21:00;;;;;;;2.58;2.38;;;18.90;64.30;;;;;;5010861;28;20032;-69
2022/03/21 06:23:26;;;;;;;2.70;2.50;;;19.00;64.30;;;;;;5011194;28;20026;-69
2022/03/21 06:25:53;;;;;;;2.63;2.42;;;18.90;64.30;;;;;;5025972;28;20021;-69
2022/03/21 06:28:20;;;;;;;2.80;2.60;;;18.90;64.30;;;;;;5028821;28;20463;-69
2022/03/21 06:30:46;;;;;;;2.55;2.35;;;19.00;64.40;;;;;;5030109;28;20021;-69
2022/03/21 06:33:12;;;;;;;2.65;2.45;;;19.00;64.40;;;;;;5029442;28;20029;-69
2022/03/21 06:35:38;;;;;;;4.22;2.50;;;18.90;64.30;;;;;;5031170;28;20060;-68
2022/03/21 06:38:03;;;;;;;2.80;2.58;;;19.00;64.50;;;;;;5029627;28;20053;-69
2022/03/21 06:40:30;;;;;;;2.50;2.30;;;19.00;64.40;;;;;;5030510;28;20029;-69
2022/03/21 06:42:56;;;;;;;2.45;2.25;;;19.00;64.40;;;;;;5029285;28;20065;-70
2022/03/21 06:45:22;;;;;;;2.60;2.40;;;19.00;64.30;;;;;;5030208;28;20321;-69
2022/03/21 06:47:47;;;;;;;2.28;2.10;;;19.00;64.30;;;;;;5030523;28;20079;-69
2022/03/21 06:50:13;;;;;;;2.67;2.28;;;19.00;64.20;;;;;;5032894;28;20021;-68
2022/03/21 06:52:39;;;;;;;2.63;2.30;;;18.90;64.20;;;;;;5034457;28;20025;-68
2022/03/21 06:55:08;;;;;;;2.20;2.10;;;19.00;64.20;;;;;;5035128;28;20022;-68
2022/03/21 06:57:33;;;;;;;3.00;2.50;;;19.00;64.10;;;;;;5033787;28;20021;-68
2022/03/21 07:00:01;;;;;;;2.35;2.15;;;18.90;64.10;;;;;;5035153;28;20112;-68
2022/03/21 07:02:28;;;;;;;2.60;2.40;;;19.00;64.10;;;;;;5035094;28;20053;-68
2022/03/21 07:04:54;;;;;;;3.67;2.28;;;19.00;64.10;;;;;;5035261;28;20028;-68
2022/03/21 07:07:21;;;;;;;2.42;2.22;;;19.00;64.00;;;;;;5035447;28;20594;-68
2022/03/21 07:09:46;;;;;;;2.50;2.30;;;18.90;63.90;;;;;;5033578;28;20024;-68
2022/03/21 07:12:12;;;;;;;2.80;2.50;;;19.00;63.90;;;;;;5035046;28;20034;-68
2022/03/21 07:14:38;;;;;;;2.83;2.63;;;19.00;63.90;;;;;;5034645;28;20120;-68
2022/03/21 07:17:04;;;;;;;2.88;2.67;;;19.00;63.90;;;;;;5034837;28;20033;-68
2022/03/21 07:19:30;;;;;;;3.10;2.67;;;18.90;63.70;;;;;;5033423;28;20014;-70
2022/03/21 07:21:56;;;;;;;2.95;2.70;;;19.00;63.80;;;;;;5034788;28;20034;-69
2022/03/21 07:24:21;;;;;;;3.67;2.42;;;19.00;63.80;;;;;;5032892;28;20491;-69
2022/03/21 07:26:47;;;;;;;2.88;2.58;;;19.00;63.70;;;;;;5033855;28;20483;-68
2022/03/21 07:29:13;;;;;;;3.17;2.70;;;19.00;63.70;;;;;;5034023;28;20101;-69
2022/03/21 07:31:38;;;;;;;3.45;2.90;;;19.00;63.70;;;;;;5035111;28;20387;-69
2022/03/21 07:34:04;;;;;;;5.05;3.00;;;19.00;63.70;;;;;;5034123;28;20037;-69
2022/03/21 07:36:30;;;;;;;5.93;3.03;;;19.00;63.60;;;;;;5033453;28;20049;-69
2022/03/21 07:38:57;;;;;;;4.45;2.92;;;19.00;63.60;;;;;;5033051;28;20056;-69
2022/03/21 07:41:26;;;;;;;5.88;3.50;;;19.00;63.60;;;;;;5032796;28;20042;-69
2022/03/21 07:43:52;;;;;;;9.63;3.03;;;19.00;63.50;;;;;;5034751;28;20510;-69
2022/03/21 07:49:02;;;;;;;7.38;3.00;;;19.00;64.50;;;;;;5034287;28;20569;-69
2022/03/21 07:51:27;;;;;;;4.43;2.85;;;19.00;63.50;;;;;;5033793;28;20033;-69
2022/03/21 07:53:53;;;;;;;9.63;3.53;;;19.00;63.50;;;;;;5032825;28;20083;-69
2022/03/21 07:56:19;;;;;;;5.63;3.17;;;19.00;63.40;;;;;;5033794;28;20037;-69
2022/03/21 07:58:45;;;;;;;7.20;3.35;;;19.00;63.50;;;;;;5032843;28;20067;-69
2022/03/21 08:01:10;;;;;;;6.43;3.67;;;19.00;63.40;;;;;;5033507;28;20449;-68
2022/03/21 08:03:36;;;;;;;5.35;3.58;;;19.10;63.50;;;;;;5033951;28;20025;-68
2022/03/21 08:06:02;;;;;;;6.50;3.10;;;19.10;63.40;;;;;;5033014;28;20022;-68
2022/03/21 08:08:28;;;;;;;6.30;2.90;;;19.10;63.40;;;;;;5032833;28;20492;-68
2022/03/21 08:10:55;;;;;;;4.95;2.72;;;19.10;63.30;;;;;;5032116;28;20043;-69
2022/03/21 08:13:22;;;;;;;5.63;3.42;;;19.10;63.40;;;;;;5033687;28;20027;-69
2022/03/21 08:15:48;;;;;;;8.57;3.20;;;19.10;63.30;;;;;;5033511;28;20037;-69
2022/03/21 08:18:15;;;;;;;4.38;2.70;;;19.10;63.30;;;;;;5033882;28;20018;-69
2022/03/21 08:20:43;;;;;;;7.57;3.10;;;19.10;63.30;;;;;;5018344;28;20075;-69
2022/03/21 08:23:11;;;;;;;8.57;3.35;;;19.10;63.30;;;;;;5012608;28;20503;-69
2022/03/21 08:25:38;;;;;;;6.47;2.67;;;19.10;63.30;;;;;;5012478;28;20033;-68
2022/03/21 08:28:07;;;;;;;4.57;2.90;;;19.10;63.30;;;;;;5017196;28;20030;-68
2022/03/21 08:30:35;;;;;;;5.10;2.80;;;19.10;63.20;;;;;;5032238;28;20030;-68
2022/03/21 08:33:06;;;;;;;4.25;2.70;;;19.10;63.30;;;;;;5032288;28;20025;-68
2022/03/21 08:35:32;;;;;;;4.93;2.95;;;19.10;63.20;;;;;;5032134;28;20040;-68
2022/03/21 08:37:57;;;;;;;3.83;2.75;;;19.10;63.20;;;;;;5032297;28;20104;-69
2022/03/21 08:40:23;;;;;;;3.20;2.70;;;19.20;63.80;;;;;;5033096;28;20406;-69
2022/03/21 08:42:49;;;;;;;5.22;2.50;;;19.20;63.20;;;;;;5033039;28;20069;-69
2022/03/21 08:45:15;;;;;;;4.93;2.78;;;19.20;63.20;;;;;;5032158;28;20029;-69
2022/03/21 08:47:41;;;;;;;5.50;2.60;;;19.20;63.20;;;;;;5031809;28;20025;-69
2022/03/21 08:50:08;;;;;;;4.57;2.72;;;19.20;63.20;;;;;;5015774;28;20475;-69
2022/03/21 08:52:33;;;;;;;5.30;2.58;;;19.20;63.20;;;;;;5032051;28;20049;-69
2022/03/21 08:54:59;;;;;;;4.57;2.38;;;19.10;63.10;;;;;;5032894;28;20566;-69
2022/03/21 08:57:25;;;;;;;3.92;2.65;;;19.20;63.10;;;;;;5033077;28;20104;-68
2022/03/21 08:59:52;;;;;;;5.22;2.83;;;19.20;63.10;;;;;;5032802;28;20033;-68
2022/03/21 09:02:18;;;;;;;4.68;2.70;;;19.20;63.10;;;;;;5032957;28;20112;-68
2022/03/21 09:04:44;;;;;;;5.72;2.65;;;19.20;63.10;;;;;;5032825;28;20124;-68
2022/03/21 09:07:11;;;;;;;7.43;2.58;;;19.20;63.10;;;;;;5032967;28;20100;-68
2022/03/21 09:09:37;;;;;;;4.97;2.67;;;19.20;63.10;;;;;;5031373;28;20040;-68
2022/03/21 09:12:03;;;;;;;4.40;2.58;;;19.20;63.10;;;;;;5030969;28;20029;-68
2022/03/21 09:14:29;;;;;;;4.53;2.58;;;19.20;63.10;;;;;;5032334;28;20026;-68
2022/03/21 09:16:56;;;;;;;4.07;2.75;;;19.20;63.10;;;;;;5032376;28;20476;-68
2022/03/21 09:19:23;;;;;;;5.00;2.50;;;19.20;63.10;;;;;;5026084;28;20028;-68
2022/03/21 09:21:51;;;;;;;4.30;2.17;;;19.20;63.10;;;;;;5012450;28;20025;-68
2022/03/21 09:24:17;;;;;;;3.28;2.08;;;19.20;63.50;;;;;;5012649;28;20018;-68
2022/03/21 09:26:42;;;;;;;5.45;2.63;;;19.20;63.10;;;;;;5012763;28;20037;-68
2022/03/21 09:29:09;;;;;;;4.18;2.45;;;19.20;63.10;;;;;;5012802;28;20030;-67
2022/03/21 09:31:40;;;;;;;4.45;2.20;;;19.20;63.10;;;;;;5012914;28;20026;-66
2022/03/21 09:34:10;;;;;;;3.75;2.30;;;19.20;63.10;;;;;;5012649;28;20062;-67
2022/03/21 09:36:36;;;;;;;3.13;2.10;;;19.30;63.20;;;;;;5012573;28;20555;-67
2022/03/21 09:39:03;;;;;;;5.38;2.30;;;19.20;63.10;;;;;;5011460;28;20049;-67
2022/03/21 09:41:30;;;;;;;4.45;2.60;;;19.20;63.10;;;;;;5011218;28;20038;-67
2022/03/21 09:43:57;;;;;;;6.18;1.90;;;19.20;63.10;;;;;;5011332;28;20030;-67
2022/03/21 09:46:23;;;;;;;2.45;2.22;;;19.20;63.10;;;;;;5011436;28;20169;-67
2022/03/21 09:48:52;;;;;;;4.45;2.05;;;19.20;63.10;;;;;;5011240;28;20101;-66
2022/03/21 09:51:25;;;;;;;4.07;2.05;;;19.30;63.10;;;;;;5011249;28;20484;-66
2022/03/21 09:53:51;;;;;;;3.28;2.22;;;19.30;63.10;;;;;;5012111;28;20040;-66
2022/03/21 09:56:17;;;;;;;5.90;1.98;;;19.30;63.20;;;;;;5012458;28;20065;-67
2022/03/21 09:58:43;;;;;;;3.67;2.22;;;19.20;63.20;;;;;;5012454;28;20044;-67
2022/03/21 10:01:11;;;;;;;3.53;2.30;;;19.30;63.20;;;;;;5012505;28;20161;-67
2022/03/21 10:03:40;;;;;;;5.55;2.30;;;19.30;63.20;;;;;;5012075;28;20400;-68
2022/03/21 10:06:28;;;;;;;5.22;2.92;;;19.30;63.20;;;;;;5011131;28;20026;-66
2022/03/21 10:09:16;;;;;;;5.63;2.25;;;19.30;63.10;;;;;;5012244;28;20101;-67
2022/03/21 10:11:52;;;;;;;2.75;2.00;;;19.30;63.20;;;;;;5011272;28;20033;-68
2022/03/21 10:14:29;;;;;;;6.30;2.60;;;19.30;63.30;;;;;;5031015;28;20018;-69
2022/03/21 10:17:01;;;;;;;5.35;2.47;;;19.30;63.20;;;;;;5030599;28;20492;-69
2022/03/21 10:19:27;;;;;;;5.95;2.40;;;19.30;63.30;;;;;;5026154;28;20018;-68
2022/03/21 10:22:06;;;;;;;3.97;1.98;;;19.30;63.30;;;;;;5011907;28;20087;-68
2022/03/21 10:24:40;;;;;;;5.53;2.08;;;19.30;63.20;;;;;;5012569;28;20053;-68
2022/03/21 10:27:06;;;;;;;2.33;1.98;;;19.30;63.20;;;;;;5015044;28;20068;-68
2022/03/21 10:29:31;;;;;;;4.95;2.25;;;19.30;63.20;;;;;;5016057;28;20441;-68
2022/03/21 10:31:58;;;;;;;3.13;2.10;;;19.30;63.20;;;;;;5014605;28;20045;-68
2022/03/21 10:34:29;;;;;;;4.60;2.22;;;19.30;63.20;;;;;;5016021;28;20097;-69
2022/03/21 10:37:05;;;;;;;3.75;1.83;;;19.30;63.20;;;;;;5015834;28;20026;-68
2022/03/21 10:39:36;;;;;;;7.38;1.77;;;19.30;63.10;;;;;;5015968;28;20061;-68
2022/03/21 10:42:06;;;;;;;5.95;2.15;;;19.30;63.10;;;;;;5015547;28;20045;-68
2022/03/21 10:44:33;;;;;;;4.10;1.83;;;19.30;63.10;;;;;;5014664;28;20026;-68
2022/03/21 10:47:00;;;;;;;3.05;1.60;;;19.30;63.10;;;;;;5015482;28;20087;-68
2022/03/21 10:49:31;;;;;;;4.15;1.60;;;19.30;63.10;;;;;;5015830;28;20071;-68
2022/03/21 10:51:57;;;;;;;4.50;1.70;;;19.30;63.00;;;;;;5015334;28;20030;-68
2022/03/21 10:54:54;;;;;;;4.03;1.92;;;19.30;63.00;;;;;;5015696;28;20040;-68
2022/03/21 10:57:36;;;;;;;2.75;1.52;;;19.30;62.70;;;;;;5011296;28;20041;-68
2022/03/21 11:00:12;;;;;;;3.67;2.03;;;19.30;62.90;;;;;;5014343;28;20405;-68
2022/03/21 11:03:16;;;;;;;4.70;1.63;;;19.30;62.90;;;;;;5015725;28;20022;-68
2022/03/21 11:05:47;;;;;;;2.38;1.50;;;19.30;62.80;;;;;;5015262;28;20100;-68
2022/03/21 11:08:15;;;;;;;5.35;1.70;;;19.20;63.10;;;;;;5014244;28;20026;-68
2022/03/21 11:10:41;;;;;;;3.75;1.45;;;19.20;63.00;;;;;;5015539;28;20046;-68
2022/03/21 11:13:08;;;;;;;1.67;1.27;;;19.20;63.00;;;;;;5026012;28;20056;-68
2022/03/21 11:15:35;;;;;;;1.55;1.38;;;19.20;62.90;;;;;;5035406;28;20108;-68
2022/03/21 11:18:01;;;;;;;2.70;1.80;;;19.30;62.90;;;;;;5034983;28;20030;-68
2022/03/21 11:20:28;;;;;;;1.75;1.65;;;19.30;62.90;;;;;;5020447;28;20026;-68
2022/03/21 11:22:55;;;;;;;5.10;1.88;;;19.30;62.90;;;;;;5015226;28;20092;-68
2022/03/21 11:25:22;;;;;;;2.35;1.38;;;19.30;62.90;;;;;;5014043;28;20048;-68
2022/03/21 11:28:13;;;;;;;2.38;1.30;;;19.30;62.80;;;;;;5013938;28;20018;-68
2022/03/21 11:31:04;;;;;;;1.52;1.42;;;19.30;62.70;;;;;;5014119;28;20072;-68
2022/03/21 11:33:56;;;;;;;2.22;1.30;;;19.30;62.60;;;;;;5014650;28;20477;-68
2022/03/21 11:36:22;;;;;;;2.47;1.35;;;19.30;62.70;;;;;;5013994;28;20054;-68
2022/03/21 11:38:48;;;;;;;3.60;1.45;;;19.30;62.80;;;;;;5013631;28;20036;-68
2022/03/21 11:41:21;;;;;;;2.70;1.45;;;19.30;62.90;;;;;;5014776;28;20116;-68
2022/03/21 11:43:47;;;;;;;1.90;1.70;;;19.30;62.80;;;;;;5014991;28;20045;-68
2022/03/21 11:46:39;;;;;;;1.90;1.38;;;19.30;62.70;;;;;;5013306;28;20030;-68
2022/03/21 11:49:19;;;;;;;2.92;1.20;;;19.30;62.50;;;;;;5013996;28;20042;-68
2022/03/21 11:51:55;;;;;;;2.00;1.30;;;19.30;62.60;;;;;;5014696;28;20049;-68
2022/03/21 11:54:31;;;;;;;2.55;1.33;;;19.30;62.70;;;;;;5013251;28;20034;-68
2022/03/21 11:57:01;;;;;;;2.10;1.20;;;19.30;62.60;;;;;;5013342;28;20030;-68
2022/03/21 11:59:33;;;;;;;1.88;1.38;;;19.30;62.70;;;;;;5014492;28;20037;-68
2022/03/21 12:02:20;;;;;;;2.00;1.10;;;19.30;62.60;;;;;;5014535;28;20484;-68
2022/03/21 12:04:59;;;;;;;1.88;1.50;;;19.30;62.40;;;;;;5012167;28;20034;-68
2022/03/21 12:07:25;;;;;;;1.55;1.23;;;19.30;62.60;;;;;;5012323;28;20088;-68
2022/03/21 12:09:55;;;;;;;1.20;1.10;;;19.30;62.70;;;;;;5012215;28;20045;-68
2022/03/21 12:12:22;;;;;;;2.72;1.15;;;19.30;62.60;;;;;;5001486;28;20033;-68
2022/03/21 12:14:50;;;;;;;1.55;1.15;;;19.30;62.60;;;;;;5031899;28;20048;-68
2022/03/21 12:17:15;;;;;;;1.45;1.30;;;19.30;62.60;;;;;;5031637;28;20048;-68
2022/03/21 12:19:58;;;;;;;1.45;1.00;;;19.30;62.50;;;;;;5031788;28;20479;-68
2022/03/21 12:24:55;;;;;;;1.17;0.95;;;19.30;62.50;;;;;;5031595;28;20029;-68
2022/03/21 12:27:33;;;;;;;2.70;0.98;;;19.30;62.50;;;;;;5031828;28;20076;-68
2022/03/21 12:30:30;;;;;;;0.80;0.80;;;19.30;62.40;;;;;;5031636;28;20534;-68
2022/03/21 12:33:14;;;;;;;2.53;1.10;;;19.40;62.30;;;;;;5031134;28;20175;-68
2022/03/21 12:35:41;;;;;;;1.40;0.98;;;19.30;62.40;;;;;;5031364;28;20102;-68
2022/03/21 12:38:17;;;;;;;1.98;0.90;;;19.30;62.60;;;;;;5031358;28;20025;-68
2022/03/21 12:40:55;;;;;;;1.13;1.02;;;19.30;62.40;;;;;;5031497;28;20080;-68
2022/03/21 12:43:31;;;;;;;1.10;0.80;;;19.30;62.40;;;;;;5033527;28;20120;-68
2022/03/21 12:46:06;;;;;;;0.77;0.77;;;19.30;62.30;;;;;;5031922;28;20101;-68
2022/03/21 12:48:34;;;;;;;0.98;0.95;;;19.30;62.30;;;;;;5033389;28;20029;-68
2022/03/21 12:50:59;;;;;;;1.23;0.95;;;19.30;62.50;;;;;;5032149;28;20484;-68
2022/03/21 12:53:35;;;;;;;0.88;0.85;;;19.30;62.40;;;;;;5032285;28;20072;-68
2022/03/21 12:56:04;;;;;;;1.05;0.90;;;19.40;62.30;;;;;;5031886;28;20408;-68
2022/03/21 12:58:30;;;;;;;2.17;0.90;;;19.40;62.40;;;;;;5032170;28;20026;-68
2022/03/21 13:00:57;;;;;;;1.05;0.80;;;19.40;62.40;;;;;;5031957;28;20101;-68
2022/03/21 13:03:23;;;;;;;1.35;1.10;;;19.40;62.40;;;;;;5033044;28;20010;-68
2022/03/21 13:11:24;;;;;;;0.75;0.60;;;19.40;62.20;;;;;;5032906;28;20071;-68
2022/03/21 13:13:53;;;;;;;1.13;1.02;;;19.40;62.40;;;;;;5031731;28;20455;-68
2022/03/21 13:16:20;;;;;;;0.90;0.88;;;19.40;62.20;;;;;;5032430;28;20040;-68
2022/03/21 13:18:46;;;;;;;0.80;0.70;;;19.40;62.20;;;;;;5032363;28;20021;-68